• Join FlightAware (Why Join?)
  • Login
  • US Flag 
05:05AM EDT


 

Airport Tracker/Info


-or-


 

Live Flight TrackerFlight Track Log ✈ N333P ✈ 05-May-2013 ✈ KTEB - KMCN

Flight Track Log - Related Links

Times and Time Zones

All times are in EDT time to prevent confusion due to time zone crossing. See the N333P flight status page for this flight to view local times or setup timezone preferences in your user account.

Time Position Orientation Groundspeed Altitude Reporting Facility
EDT Latitude Longitude Course Direction KTS MPH feet Rate Location/Type
08:31PM 40.8333 -74.1000 252° West 160 184 1,200  Level New York TRACON
08:32PM 40.8167 -74.1667 252° West 203 234 2,500 1,440 Climbing New York TRACON
08:33PM 40.8000 -74.2500 255° West 210 242 4,300 1,800 Climbing New York TRACON
08:34PM 40.8167 -74.3167 288° West 200 230 6,100 1,800 Climbing New York TRACON
08:35PM 40.8000 -74.3833 252° West 195 224 7,800 1,560 Climbing New York TRACON
08:36PM 40.7667 -74.4500 237° Southwest 207 238 9,300 1,200 Climbing New York TRACON
08:38PM 40.7117 -74.6119 246° West 233 268 12,000 1,140 Climbing New York Center
08:39PM 40.6819 -74.6897 243° Southwest 226 260 13,300 1,200 Climbing New York Center
08:40PM 40.6589 -74.7567 246° West 231 266 14,400 1,080 Climbing New York Center
08:41PM 40.6311 -74.8372 246° West 231 266 15,500 960 Climbing New York Center
08:42PM 40.6058 -74.9042 244° Southwest 231 266 16,400 720 Climbing New York Center
08:43PM 40.5781 -74.9817 245° Southwest 231 266 17,000 360 Climbing New York Center
08:44PM 40.5356 -75.0636 236° Southwest 236 272 17,200 480 Climbing New York Center
08:45PM 40.4956 -75.1322 233° Southwest 250 288 18,000 360 Climbing New York Center
08:46PM 40.4514 -75.2003 230° Southwest 250 288 18,000  Level New York Center
08:47PM 40.4114 -75.2658 231° Southwest 250 288 18,000  Level New York Center
08:48PM 40.3647 -75.3392 230° Southwest 255 293 18,000  Level New York Center
08:49PM 40.3139 -75.4175 230° Southwest 263 303 18,000  Level New York Center
08:50PM 40.2692 -75.4906 231° Southwest 263 303 18,000  Level New York Center
08:51PM 40.2225 -75.5636 230° Southwest 263 303 18,000  Level New York Center
08:52PM 40.1797 -75.6419 234° Southwest 274 315 18,000  Level New York Center
08:53PM 40.1408 -75.7236 238° Southwest 268 308 18,000  Level New York Center
08:54PM 40.1022 -75.7994 236° Southwest 268 308 18,000  Level New York Center
08:55PM 40.0633 -75.8808 238° Southwest 268 308 18,000  Level New York Center
08:56PM 40.0225 -75.9564 235° Southwest 268 308 18,000  Level New York Center
08:57PM 39.9833 -76.0375 238° Southwest 268 308 18,000  Level New York Center
08:58PM 39.9469 -76.1078 236° Southwest 268 308 18,000  Level New York Center
08:59PM 39.9033 -76.1939 237° Southwest 273 314 18,000  Level New York Center
09:00PM 39.8642 -76.2719 237° Southwest 273 314 18,000  Level New York Center
09:01PM 39.8231 -76.3525 236° Southwest 273 314 18,000  Level New York Center
09:02PM 39.7839 -76.4278 236° Southwest 268 308 18,000  Level New York Center
09:03PM 39.7406 -76.5053 234° Southwest 274 315 18,000  Level New York Center
09:04PM 39.7036 -76.5806 237° Southwest 274 315 18,000  Level New York Center
09:05PM 39.6736 -76.6322 233° Southwest 277 319 18,000  Level Washington Center
09:06PM 39.6378 -76.7017 236° Southwest 266 306 18,000  Level Washington Center
09:07PM 39.5953 -76.7792 235° Southwest 266 306 18,000  Level Washington Center
09:08PM 39.5550 -76.8564 236° Southwest 266 306 18,000  Level Washington Center
09:09PM 39.5144 -76.9364 237° Southwest 261 300 18,000  Level Washington Center
09:10PM 39.4739 -77.0111 235° Southwest 261 300 18,000  Level Washington Center
09:11PM 39.4172 -77.0611 214° Southwest 250 288 18,000  Level Washington Center
09:12PM 39.3622 -77.1164 218° Southwest 250 288 18,000  Level Washington Center
09:13PM 39.3072 -77.1742 219° Southwest 255 293 18,000  Level Washington Center
09:14PM 39.2525 -77.2292 218° Southwest 255 293 18,000  Level Washington Center
09:15PM 39.1975 -77.2869 219° Southwest 255 293 18,000  Level Washington Center
09:16PM 39.1444 -77.3444 220° Southwest 255 293 18,000  Level Washington Center
09:17PM 39.0875 -77.4019 218° Southwest 255 293 18,000  Level Washington Center
09:18PM 39.0344 -77.4569 219° Southwest 255 293 18,000  Level Washington Center
09:19PM 38.9814 -77.5142 220° Southwest 255 293 18,000  Level Washington Center
09:20PM 38.9283 -77.5689 219° Southwest 250 288 18,000  Level Washington Center
09:21PM 38.8753 -77.6261 220° Southwest 255 293 18,000  Level Washington Center
09:22PM 38.8225 -77.6728 215° Southwest 255 293 18,000  Level Washington Center
09:23PM 38.7714 -77.7297 221° Southwest 255 293 18,000  Level Washington Center
09:24PM 38.7183 -77.7867 220° Southwest 255 293 18,000  Level Washington Center
09:25PM 38.6650 -77.8411 219° Southwest 255 293 18,000  Level Washington Center
09:26PM 38.6158 -77.9058 226° Southwest 249 287 18,000  Level Washington Center
09:27PM 38.5750 -77.9764 234° Southwest 249 287 18,000  Level Washington Center
09:28PM 38.5339 -78.0494 234° Southwest 254 292 18,000  Level Washington Center
09:29PM 38.4928 -78.1197 233° Southwest 254 292 18,000  Level Washington Center
09:30PM 38.4494 -78.1925 233° Southwest 259 298 18,000  Level Washington Center
09:31PM 38.4106 -78.2625 235° Southwest 259 298 18,000  Level Washington Center
09:32PM 38.3672 -78.3325 232° Southwest 259 298 18,000  Level Washington Center
09:33PM 38.3281 -78.4000 234° Southwest 259 298 18,000  Level Washington Center
09:34PM 38.2847 -78.4725 233° Southwest 259 298 18,000  Level Washington Center
09:35PM 38.2411 -78.5500 234° Southwest 259 298 18,000  Level Washington Center
09:36PM 38.1997 -78.6197 233° Southwest 259 298 18,000  Level Washington Center
09:37PM 38.1583 -78.6894 233° Southwest 259 298 18,000  Level Washington Center
09:38PM 38.1192 -78.7536 232° Southwest 259 298 18,000  Level Washington Center
09:39PM 38.0778 -78.8206 232° Southwest 259 298 18,000  Level Washington Center
09:40PM 38.0361 -78.8900 233° Southwest 259 298 18,000  Level Washington Center
09:41PM 37.9947 -78.9592 233° Southwest 254 292 18,000  Level Washington Center
09:42PM 37.9486 -79.0361 233° Southwest 254 292 18,000  Level Washington Center
09:43PM 37.9050 -79.1028 230° Southwest 254 292 18,000  Level Washington Center
09:44PM 37.8514 -79.1528 216° Southwest 249 287 18,000  Level Washington Center
09:45PM 37.7978 -79.2028 216° Southwest 244 281 18,000  Level Washington Center
09:46PM 37.7483 -79.2478 216° Southwest 244 281 18,000  Level Washington Center
09:47PM 37.6861 -79.3025 215° Southwest 252 290 18,000  Level Washington Center
09:48PM 37.6325 -79.3550 218° Southwest 247 284 18,000  Level Washington Center
09:49PM 37.5767 -79.4044 215° Southwest 253 291 18,000  Level Washington Center
09:50PM 37.5228 -79.4567 218° Southwest 253 291 18,000  Level Washington Center
09:51PM 37.4669 -79.5089 217° Southwest 253 291 18,000  Level Washington Center
09:52PM 37.4153 -79.5586 217° Southwest 258 297 18,000  Level Washington Center
09:53PM 37.3592 -79.6106 216° Southwest 252 290 18,000  Level Washington Center
09:54PM 37.2989 -79.6675 217° Southwest 252 290 18,000  Level Washington Center
09:55PM 37.2431 -79.7167 215° Southwest 252 290 18,000  Level Washington Center
09:56PM 37.1889 -79.7683 217° Southwest 252 290 18,000  Level Washington Center
09:57PM 37.1350 -79.8178 216° Southwest 252 290 18,000  Level Washington Center
09:58PM 37.0856 -79.8644 217° Southwest 252 290 18,000  Level Washington Center
09:59PM 37.0317 -79.9133 216° Southwest 252 290 18,000  Level Washington Center
10:00PM 36.9756 -79.9622 215° Southwest 252 290 18,000  Level Washington Center
10:01PM 36.9258 -80.0114 218° Southwest 252 290 18,000 -120 Level Washington Center
10:02PM 36.8656 -80.0625 214° Southwest 252 290 17,800 -360 Descending Washington Center
10:02PM 36.8228 -80.0972 213° Southwest 257 296 17,400 -540 Descending Atlanta Center
10:03PM 36.7722 -80.1464 218° Southwest 252 290 16,900 -660 Descending Atlanta Center
10:04PM 36.7136 -80.2011 217° Southwest 252 290 16,100 -420 Descending Atlanta Center
10:05PM 36.6608 -80.2503 217° Southwest 252 290 16,100  Level Atlanta Center
10:06PM 36.6081 -80.2967 215° Southwest 242 278 16,100  Level Atlanta Center
10:07PM 36.5553 -80.3431 215° Southwest 242 278 16,100  Level Atlanta Center
10:08PM 36.5106 -80.3839 216° Southwest 242 278 16,100  Level Atlanta Center
10:09PM 36.4600 -80.4300 216° Southwest 242 278 16,100  Level Atlanta Center
10:10PM 36.4092 -80.4789 218° Southwest 242 278 16,100  Level Atlanta Center
10:11PM 36.3583 -80.5197 213° Southwest 242 278 16,100  Level Atlanta Center
10:12PM 36.3053 -80.5683 216° Southwest 232 267 16,100 -360 Level Atlanta Center
10:13PM 36.2525 -80.6194 218° Southwest 240 276 15,400 -540 Descending Atlanta Center
10:14PM 36.1978 -80.6708 217° Southwest 245 282 15,100 -600 Descending Atlanta Center
10:15PM 36.1406 -80.7194 214° Southwest 245 282 14,200 -480 Descending Atlanta Center
10:16PM 36.0856 -80.7706 217° Southwest 245 282 14,200  Level Atlanta Center
10:17PM 36.0306 -80.8189 215° Southwest 245 282 14,200  Level Atlanta Center
10:18PM 35.9775 -80.8647 215° Southwest 245 282 14,200 -60 Level Atlanta Center
10:19PM 35.9328 -80.9075 218° Southwest 235 270 14,100 -60 Descending Atlanta Center
10:21PM 35.8675 -80.9639 215° Southwest 235 270 14,100  Level Atlanta Center
10:21PM 35.8247 -81.0014 215° Southwest 245 282 14,100  Level Atlanta Center
10:22PM 35.7717 -81.0494 216° Southwest 245 282 14,100  Level Atlanta Center
10:23PM 35.7183 -81.0947 215° Southwest 245 282 14,100  Level Atlanta Center
10:24PM 35.6653 -81.1428 216° Southwest 240 276 14,100  Level Atlanta Center
10:25PM 35.5972 -81.1706 198° South 240 276 14,100  Level Atlanta Center
10:26PM 35.5328 -81.1881 192° South 240 276 14,100  Level Atlanta Center
10:27PM 35.4706 -81.2056 193° South 235 270 14,100  Level Atlanta Center
10:28PM 35.4561 -81.2086 190° South 229 264 14,100 -120 Level Atlanta Center
10:29PM 35.3939 -81.2261 193° South 227 261 14,000  Descending Atlanta Center
10:30PM 35.3469 -81.2658 215° Southwest 230 265 14,100  Climbing Atlanta Center
10:30PM 35.3017 -81.3006 212° Southwest 227 261 14,100  Level Atlanta Center
10:31PM 35.2569 -81.3503 222° Southwest 245 282 14,100  Level Atlanta Center
10:32PM 35.2100 -81.3950 218° Southwest 245 282 14,100  Level Atlanta Center
10:33PM 35.1589 -81.4425 217° Southwest 234 269 14,100 -60 Level Atlanta Center
10:34PM 35.1097 -81.4897 218° Southwest 229 264 14,000  Descending Atlanta Center
10:35PM 35.0586 -81.5369 217° Southwest 229 264 14,100  Climbing Atlanta Center
10:36PM 35.0031 -81.5867 216° Southwest 229 264 14,100 -60 Level Atlanta Center
10:37PM 34.9500 -81.6364 218° Southwest 235 270 14,000 -60 Descending Atlanta Center
10:38PM 34.8967 -81.6886 219° Southwest 240 276 14,000  Level Atlanta Center
10:39PM 34.8453 -81.7331 215° Southwest 240 276 14,000  Level Atlanta Center
10:40PM 34.7939 -81.7800 217° Southwest 240 276 14,000  Level Atlanta Center
10:41PM 34.7428 -81.8294 218° Southwest 245 282 14,000  Level Atlanta Center
10:42PM 34.6894 -81.8764 216° Southwest 245 282 14,000  Level Atlanta Center
10:43PM 34.6358 -81.9231 216° Southwest 245 282 14,000  Level Atlanta Center
10:44PM 34.5844 -81.9700 217° Southwest 245 282 14,000  Level Atlanta Center
10:45PM 34.5331 -82.0167 217° Southwest 245 282 14,000  Level Atlanta Center
10:46PM 34.4797 -82.0658 217° Southwest 245 282 14,000  Level Atlanta Center
10:47PM 34.4322 -82.1097 217° Southwest 250 288 14,000  Level Atlanta Center
10:48PM 34.3808 -82.1561 217° Southwest 245 282 14,000  Level Atlanta Center
10:49PM 34.3275 -82.2050 217° Southwest 245 282 14,000  Level Atlanta Center
10:50PM 34.2739 -82.2514 216° Southwest 245 282 14,000  Level Atlanta Center
10:51PM 34.2222 -82.3003 218° Southwest 245 282 14,000  Level Atlanta Center
10:52PM 34.1728 -82.3439 216° Southwest 245 282 14,000  Level Atlanta Center
10:53PM 34.1150 -82.3978 218° Southwest 245 282 14,000  Level Atlanta Center
10:54PM 34.0636 -82.4414 215° Southwest 240 276 14,000  Level Atlanta Center
10:55PM 34.0142 -82.4900 219° Southwest 245 282 14,000  Level Atlanta Center
10:56PM 33.9625 -82.5361 217° Southwest 240 276 14,000  Level Atlanta Center
10:57PM 33.9067 -82.5794 213° Southwest 240 276 14,000  Level Atlanta Center
10:58PM 33.8550 -82.6256 217° Southwest 240 276 14,000  Level Atlanta Center
10:59PM 33.8178 -82.6661 222° Southwest 229 264 14,000  Level Atlanta Center
11:00PM 33.7642 -82.7094 214° Southwest 232 267 14,000 -180 Level Atlanta Center
11:01PM 33.7167 -82.7550 219° Southwest 226 260 13,700 -720 Descending Atlanta Center
11:02PM 33.6647 -82.7983 215° Southwest 226 260 12,600 -900 Descending Atlanta Center
11:03PM 33.6153 -82.8439 218° Southwest 226 260 11,900 -720 Descending Atlanta Center
11:04PM 33.5633 -82.8894 216° Southwest 231 266 11,200 -480 Descending Atlanta Center
11:05PM 33.5117 -82.9375 218° Southwest 226 260 11,000 -120 Descending Atlanta Center
11:06PM 33.4661 -82.9756 215° Southwest 215 247 11,000  Level Atlanta Center
11:07PM 33.4206 -83.0158 216° Southwest 220 253 11,000 -240 Level Atlanta Center
11:08PM 33.3686 -83.0636 218° Southwest 225 259 10,600 -540 Descending Atlanta Center
11:09PM 33.3128 -83.1042 211° Southwest 230 265 10,000 -600 Descending Atlanta Center
11:10PM 33.2631 -83.1494 217° Southwest 230 265 9,400 -600 Descending Atlanta Center
11:11PM 33.2153 -83.1922 217° Southwest 237 273 8,900 -660 Descending Atlanta Center
11:12PM 33.1569 -83.2275 207° Southwest 242 278 8,100 -600 Descending Atlanta Center
11:13PM 33.1092 -83.2725 218° Southwest 235 270 7,800 -780 Descending Atlanta Center
11:14PM 33.0533 -83.3250 218° Southwest 235 270 6,600 -1,140 Descending Atlanta Center
11:15PM 33.0033 -83.3775 221° Southwest 241 277 5,600 -1,020 Descending Atlanta Center
11:16PM 32.9556 -83.4225 218° Southwest 235 270 4,600 -1,020 Descending Atlanta Center